Centerport, New York
Current Conditions -  °F | °C
As of 1:53 PM on Thursday 18 Dec 2014 (Local Time) from KFRG Reporting Station
Broken Clouds Broken Clouds  
Wind Chill: 34°   Ceiling: 3900
Heat Index: 42°   Visibility: 10mi
Dew Point: 24°   Wind: 16mph
Humidity: 49%   Direction: 300°WNW
Pressure: 29.92"   Gusts: 23mph
Location:  40.89°N, 73.37°W
Report Text: KFRG 181853Z 30014G20KT 10SM BKN039 06/M04 A2992 RMK AO2 SLP131 T00561044
Loading
Personal Weather Stations






























Interactive Weather Map New forecast layout! Learn more

10-Day Weather Forecast

Advertisements
Track Severe Weather on mobile